Airfield :
LOGIN :

Register | Disclaimer

   EN    FR    IT 

 










Legend :    VFR   Marginal VFR   IFR   Intensive IFR   Very Intensive IFR
Visi :
Ceiling :
>= 8 km
>= 3000ft
5 to 8 km
1000 to 3000 ft
1500m to 5 km
500 to 1000 ft
800 to 1500m
200 to 500 ft
< 800m
< 200 ft
Symbols :   Thunderstorms  Fog  Heavy snow  Heavy precipitations  Wind > 20 kt
SIGMETs :     Misc.  Thunderstorms  Icing  Turbulence  Mountain Waves  Volcanic Ashes






- Airport Elevation : 239 ft
- IATA code : VRN


LIPX - Villafranca Int. Verona

CURRENT METAR :
  • 201350Z 15006KT 130V190 9999 SCT030 SCT080 23/16 Q1009

EXPIRED METARs :
  • 201320Z 13006KT 100V160 9999 SCT030 SCT080 23/15 Q1010
  • 201250Z 11008KT 080V150 9000 SCT020 SCT080 23/15 Q1010
  • 201220Z 12007KT 080V150 9000 SCT020 SCT060 24/15 Q1010
  • 201150Z 11007KT 060V170 9000 FEW020 SCT070 24/16 Q1010
  • 201120Z 12006KT 080V150 9000 FEW020 SCT060 24/15 Q1011
  • 201050Z 09006KT 050V140 9000 FEW020 SCT070 23/16 Q1011
  • 201020Z 09006KT 040V150 9000 SCT020 SCT060 22/16 Q1011
  • 200950Z 10006KT 040V140 9000 SCT020 SCT060 22/16 Q1012
  • 200920Z 12006KT 090V170 9000 SCT020 21/16 Q1012

TAF TAF LIPX
Valid from the 20 at 12:00 until the 21 at 12:00 UTC


201100Z 2012/2112 08012KT 9999 FEW040
TEMPO 2012/2106 TSRA
BECMG 2018/2020 VRB05KT
TEMPO 2106/2112 SHRA



MET'MAP, your aeronautical weather chart ! - Copyright ORBIFLY December 2007 - Disclaimer

ORBIFLY MET'MAP TEAM :

Programming & Development : Alexandra Zaïnal
Original concept : Baudouin d'Aumeries
Technical & hardware support : Manuel Goepfert
Assistance : Marc-Olivier Méhu




SOURCES & CREDITS :

   NOAA